Carlyle, Illinois
Current Conditions -  °F | °C
As of 1:35 PM on Thursday 23 Oct 2014 (Local Time) from KENL Reporting Station
Clear Clear  
Wind Chill: 60°   Ceiling: Unl
Heat Index: 60°   Visibility: 10mi
Dew Point: 43°   Wind: 8mph
Humidity: 54%   Direction: 220°SW
Pressure: 30.18"   Gusts: NA
Location:  38.61°N, 89.37°W
Report Text: KENL 231835Z AUTO 22007KT 10SM CLR 15/06 A3018 RMK AO2 T01540062
Loading
Personal Weather Stations






























Interactive Weather Map
Tropical Storm Tracking
New forecast layout! Learn more

10-Day Weather Forecast

Advertisements
Track Severe Weather on mobile